Time;durP1;ratioP1;P1;durP2;ratioP2;P2;SDS_P1;SDS_P2;PMS_P1;PMS_P2;Temp;Humidity;BMP_temperature;BMP_pressure;BME280_temperature;BME280_humidity;BME280_pressure;Samples;Min_cycle;Max_cycle;Signal;HPM_P1;HPM_P2
2021/07/11 00:01:50;;;;;;;4.10;2.30;;;;;;;15.31;49.69;101636.91;5051061;28;20060;-88
2021/07/11 00:04:16;;;;;;;2.95;2.60;;;;;;;15.45;49.13;101636.22;5057209;28;20074;-89
2021/07/11 00:06:41;;;;;;;3.55;3.03;;;;;;;15.38;49.27;101635.69;5052944;28;20094;-88
2021/07/11 00:09:08;;;;;;;3.60;2.42;;;;;;;15.36;49.28;101630.47;5053472;28;20070;-87
2021/07/11 00:11:34;;;;;;;3.72;2.53;;;;;;;15.35;49.31;101635.84;5043739;28;20033;-89
2021/07/11 00:14:01;;;;;;;3.13;2.53;;;;;;;15.44;49.15;101634.50;5070868;28;20096;-89
2021/07/11 00:16:31;;;;;;;2.97;2.53;;;;;;;15.26;49.59;101646.78;5039162;28;20029;-88
2021/07/11 00:18:58;;;;;;;3.65;2.92;;;;;;;15.40;49.24;101639.09;5054431;28;20126;-89
2021/07/11 00:21:25;;;;;;;3.78;2.38;;;;;;;15.40;49.10;101639.09;5038817;28;20087;-90
2021/07/11 00:23:51;;;;;;;4.70;2.60;;;;;;;15.36;48.93;101648.91;5050027;28;20101;-89
2021/07/11 00:26:17;;;;;;;4.82;2.47;;;;;;;15.36;48.94;101648.91;5058168;28;20082;-87
2021/07/11 00:28:43;;;;;;;3.78;3.15;;;;;;;15.30;49.11;101643.09;5053801;28;20041;-89
2021/07/11 00:31:09;;;;;;;3.70;2.70;;;;;;;15.27;49.48;101648.50;5058133;28;20072;-89
2021/07/11 00:33:37;;;;;;;5.38;2.95;;;;;;;15.24;49.75;101640.72;5054455;28;20034;-89
2021/07/11 00:36:03;;;;;;;3.42;2.30;;;;;;;15.20;49.09;101647.91;5041862;28;20041;-90
2021/07/11 00:38:29;;;;;;;4.00;2.47;;;;;;;15.17;49.56;101635.75;5035232;28;20040;-91
2021/07/11 00:40:57;;;;;;;3.55;2.72;;;;;;;15.10;49.44;101633.47;5036297;28;20033;-91
2021/07/11 00:43:24;;;;;;;3.35;2.92;;;;;;;15.05;49.72;101631.06;5038210;28;20312;-89
2021/07/11 00:45:51;;;;;;;4.57;2.80;;;;;;;15.12;49.39;101637.72;5049371;28;20096;-89
2021/07/11 00:48:18;;;;;;;5.22;2.75;;;;;;;15.21;49.28;101643.50;5040265;28;20057;-89
2021/07/11 00:50:46;;;;;;;6.65;3.30;;;;;;;15.24;49.54;101648.63;5053425;28;20030;-88
2021/07/11 00:53:14;;;;;;;3.92;2.83;;;;;;;15.15;49.37;101645.50;5053583;28;20033;-87
2021/07/11 00:55:42;;;;;;;4.40;3.67;;;;;;;15.21;48.98;101654.03;5056753;28;20048;-90
2021/07/11 00:58:10;;;;;;;4.10;3.60;;;;;;;15.15;49.34;101649.91;5037990;28;20029;-90
2021/07/11 01:00:54;;;;;;;3.58;2.70;;;;;;;14.91;49.74;101646.66;5051156;28;20053;-90
2021/07/11 01:03:27;;;;;;;6.60;3.40;;;;;;;14.95;50.01;101656.13;5058173;28;20033;-89
2021/07/11 01:05:55;;;;;;;3.80;2.08;;;;;;;15.08;49.01;101653.75;5054788;28;20045;-89
2021/07/11 01:08:36;;;;;;;4.32;3.28;;;;;;;15.01;49.75;101641.78;5044065;28;20064;-88
2021/07/11 01:11:09;;;;;;;4.90;3.60;;;;;;;14.97;49.65;101651.63;5051580;28;20591;-88
2021/07/11 01:13:36;;;;;;;3.97;3.40;;;;;;;14.84;50.08;101658.38;5037817;28;20037;-88
2021/07/11 01:16:08;;;;;;;4.38;3.10;;;;;;;14.98;49.20;101658.59;5048763;28;20071;-90
2021/07/11 01:18:39;;;;;;;7.28;3.47;;;;;;;14.85;49.91;101657.44;5058328;28;20321;-90
2021/07/11 01:21:13;;;;;;;7.18;3.13;;;;;;;15.00;49.16;101659.38;5055684;28;20219;-88
2021/07/11 01:24:11;;;;;;;9.98;4.03;;;;;;;14.84;49.76;101661.88;5057361;28;20029;-87
2021/07/11 01:26:37;;;;;;;5.82;3.58;;;;;;;14.90;49.71;101650.19;5056862;28;20033;-87
2021/07/11 01:29:06;;;;;;;5.22;3.17;;;;;;;14.93;49.28;101650.06;5052315;28;20135;-89
2021/07/11 01:31:34;;;;;;;5.43;2.67;;;;;;;14.94;49.42;101651.75;5040976;28;20033;-89
2021/07/11 01:34:02;;;;;;;4.57;3.20;;;;;;;14.91;49.28;101649.28;5051665;28;20060;-89
2021/07/11 01:36:29;;;;;;;8.07;3.70;;;;;;;14.85;49.59;101658.28;5049361;28;20041;-91
2021/07/11 01:38:59;;;;;;;4.68;3.10;;;;;;;14.89;49.54;101653.75;5041892;28;20033;-89
2021/07/11 01:41:37;;;;;;;3.13;2.67;;;;;;;14.80;49.40;101655.03;5056714;28;20436;-89
2021/07/11 01:44:08;;;;;;;6.45;3.22;;;;;;;14.79;49.46;101649.81;5050487;28;20024;-89
2021/07/11 01:46:35;;;;;;;4.15;3.03;;;;;;;14.76;49.40;101656.09;5059548;28;20060;-88
2021/07/11 01:49:01;;;;;;;4.22;3.58;;;;;;;14.68;49.46;101656.44;5036329;28;20116;-89
2021/07/11 01:51:29;;;;;;;4.25;3.10;;;;;;;14.72;49.50;101651.88;5049943;28;20389;-90
2021/07/11 01:53:59;;;;;;;5.75;3.92;;;;;;;14.54;50.31;101648.28;5054660;28;20048;-89
2021/07/11 01:56:27;;;;;;;5.05;3.75;;;;;;;14.47;50.34;101646.88;5035518;28;20045;-89
2021/07/11 01:58:54;;;;;;;5.93;4.40;;;;;;;14.53;50.17;101647.44;5039189;28;20033;-90
2021/07/11 02:01:26;;;;;;;5.28;3.70;;;;;;;14.54;50.09;101649.19;5054663;28;20033;-88
2021/07/11 02:04:03;;;;;;;5.47;4.50;;;;;;;14.49;50.45;101652.91;5052316;28;20030;-89
2021/07/11 02:06:29;;;;;;;4.90;3.80;;;;;;;14.55;49.93;101655.28;5034317;28;20060;-90
2021/07/11 02:09:09;;;;;;;5.72;3.58;;;;;;;14.52;49.82;101658.03;5036881;28;20554;-90
2021/07/11 02:11:39;;;;;;;4.75;3.92;;;;;;;14.35;50.29;101654.34;5044280;28;20037;-88
2021/07/11 02:14:14;;;;;;;3.85;2.97;;;;;;;14.35;50.21;101656.13;5034346;28;20052;-89
2021/07/11 02:17:09;;;;;;;7.13;4.03;;;;;;;14.29;50.67;101659.88;5042081;28;20041;-89
2021/07/11 02:19:51;;;;;;;7.00;3.97;;;;;;;14.31;50.46;101658.03;5035538;28;20040;-90
2021/07/11 02:22:17;;;;;;;5.80;4.15;;;;;;;14.39;50.08;101660.34;5056313;28;20056;-89
2021/07/11 02:24:48;;;;;;;3.58;2.83;;;;;;;14.35;50.04;101664.88;5032942;28;20648;-88
2021/07/11 02:27:22;;;;;;;4.18;3.72;;;;;;;14.28;50.23;101663.44;5057381;28;20523;-89
2021/07/11 02:29:53;;;;;;;3.90;3.40;;;;;;;14.23;50.15;101652.25;5049714;28;20126;-89
2021/07/11 02:32:23;;;;;;;5.68;4.03;;;;;;;14.21;50.58;101656.72;5035415;28;20509;-89
2021/07/11 02:34:49;;;;;;;4.72;3.83;;;;;;;14.28;50.48;101652.91;5054840;28;20076;-88
2021/07/11 02:37:19;;;;;;;5.18;4.15;;;;;;;14.35;50.19;101662.22;5045480;28;20022;-87
2021/07/11 02:39:49;;;;;;;7.82;3.95;;;;;;;14.31;50.06;101658.03;5038094;28;20033;-88
2021/07/11 02:42:17;;;;;;;4.00;3.10;;;;;;;14.31;50.15;101657.19;5061495;28;20021;-89
2021/07/11 02:44:47;;;;;;;6.13;4.07;;;;;;;14.26;50.14;101653.91;5059547;28;20033;-87
2021/07/11 02:47:22;;;;;;;6.43;3.75;;;;;;;14.16;50.77;101653.41;5061713;28;20041;-89
2021/07/11 02:49:56;;;;;;;6.45;4.18;;;;;;;14.18;50.64;101651.59;5044822;28;20393;-89
2021/07/11 02:52:23;;;;;;;5.25;4.13;;;;;;;14.12;51.03;101651.84;5053710;28;20044;-88
2021/07/11 02:55:13;;;;;;;7.60;3.90;;;;;;;14.12;51.01;101646.59;5052725;28;20033;-89
2021/07/11 02:57:49;;;;;;;5.75;3.60;;;;;;;14.11;51.24;101652.78;5052510;28;20182;-90
2021/07/11 03:00:16;;;;;;;7.07;3.55;;;;;;;14.07;51.36;101648.56;5068363;28;20028;-89
2021/07/11 03:02:46;;;;;;;4.97;4.00;;;;;;;14.02;51.09;101645.28;5054285;28;20117;-86
2021/07/11 03:05:22;;;;;;;5.38;3.53;;;;;;;14.04;51.23;101643.44;5041760;28;20027;-89
2021/07/11 03:07:51;;;;;;;6.90;4.22;;;;;;;14.13;51.30;101638.63;5035802;28;20041;-90
2021/07/11 03:10:18;;;;;;;4.80;4.22;;;;;;;14.01;51.10;101643.56;5036767;28;20041;-91
2021/07/11 03:12:51;;;;;;;6.93;3.97;;;;;;;14.03;51.41;101642.59;5034768;28;20068;-89
2021/07/11 03:15:19;;;;;;;5.20;4.15;;;;;;;13.98;51.11;101649.81;5048491;28;20024;-88
2021/07/11 03:17:54;;;;;;;6.30;4.60;;;;;;;13.77;51.79;101643.69;5058019;28;20029;-89
2021/07/11 03:20:22;;;;;;;5.10;3.78;;;;;;;13.88;52.31;101643.25;5041562;28;20032;-89
2021/07/11 03:22:53;;;;;;;8.27;5.00;;;;;;;13.91;52.13;101643.94;5043937;28;20029;-88
2021/07/11 03:25:24;;;;;;;6.35;4.60;;;;;;;13.90;52.03;101639.63;5061939;28;20100;-90
2021/07/11 03:27:51;;;;;;;5.78;4.60;;;;;;;14.13;51.54;101643.06;5054196;28;20030;-88
2021/07/11 03:30:20;;;;;;;6.05;5.43;;;;;;;13.92;52.40;101650.09;5043273;28;20036;-88
2021/07/11 03:32:54;;;;;;;6.60;4.28;;;;;;;14.22;51.51;101641.81;5054921;28;20045;-88
2021/07/11 03:35:55;;;;;;;6.57;4.63;;;;;;;14.11;51.83;101644.88;5053574;28;20028;-88
2021/07/11 03:38:47;;;;;;;4.70;4.18;;;;;;;14.28;51.08;101642.38;5026107;28;20037;-90
2021/07/11 03:41:18;;;;;;;6.38;4.68;;;;;;;14.20;51.30;101641.84;5036832;28;20033;-89
2021/07/11 03:43:51;;;;;;;5.78;4.75;;;;;;;14.09;51.63;101639.69;5052861;28;20037;-88
2021/07/11 03:46:20;;;;;;;4.40;3.95;;;;;;;14.17;51.99;101642.00;5059010;28;20037;-88
2021/07/11 03:48:48;;;;;;;7.97;4.72;;;;;;;14.19;51.79;101642.78;5038879;28;20049;-89
2021/07/11 03:51:16;;;;;;;7.28;4.20;;;;;;;14.23;51.30;101647.00;5054087;28;20046;-89
2021/07/11 03:53:44;;;;;;;6.47;4.68;;;;;;;13.92;52.74;101643.03;5049606;28;20470;-90
2021/07/11 03:56:10;;;;;;;9.57;3.95;;;;;;;14.17;52.03;101644.63;5049946;28;20071;-88
2021/07/11 03:58:41;;;;;;;5.00;3.30;;;;;;;13.98;52.43;101652.44;5055811;28;20142;-91
2021/07/11 04:01:08;;;;;;;4.60;3.67;;;;;;;14.00;52.50;101655.84;5055264;28;20040;-87
2021/07/11 04:03:41;;;;;;;3.88;3.22;;;;;;;14.43;51.50;101659.28;5036736;28;20766;-88
2021/07/11 04:06:13;;;;;;;7.40;4.05;;;;;;;14.52;51.62;101658.03;5035380;28;20029;-88
2021/07/11 04:08:41;;;;;;;5.03;3.78;;;;;;;14.63;51.05;101666.28;5042004;28;20047;-88
2021/07/11 04:11:07;;;;;;;4.18;3.42;;;;;;;14.65;51.15;101666.25;5041742;28;20180;-86
2021/07/11 04:13:36;;;;;;;3.78;2.97;;;;;;;14.87;50.80;101666.13;5055225;28;20086;-87
2021/07/11 04:16:07;;;;;;;5.13;3.95;;;;;;;14.88;50.34;101659.94;5053490;28;20041;-88
2021/07/11 04:18:41;;;;;;;5.32;4.38;;;;;;;14.87;50.81;101653.81;5054007;28;20033;-90
2021/07/11 04:21:08;;;;;;;5.40;3.30;;;;;;;14.94;50.72;101652.59;5052238;28;20096;-89
2021/07/11 04:23:35;;;;;;;5.05;3.15;;;;;;;15.00;50.45;101651.47;5044492;28;20037;-86
2021/07/11 04:26:03;;;;;;;4.30;3.03;;;;;;;15.24;50.29;101660.06;5051744;28;20037;-88
2021/07/11 04:28:31;;;;;;;4.85;3.40;;;;;;;15.36;49.83;101653.34;5069267;28;20025;-86
2021/07/11 04:31:00;;;;;;;4.82;3.13;;;;;;;15.48;49.18;101655.41;5051640;28;20032;-88
2021/07/11 04:33:26;;;;;;;4.38;3.65;;;;;;;15.64;48.89;101651.97;5054623;28;20037;-89
2021/07/11 04:35:52;;;;;;;6.47;3.83;;;;;;;15.53;49.22;101645.47;5055048;28;20037;-89
2021/07/11 04:38:18;;;;;;;4.65;3.45;;;;;;;15.86;48.72;101651.78;5037555;28;20041;-88
2021/07/11 04:40:45;;;;;;;7.60;3.45;;;;;;;15.88;48.67;101649.91;5054333;28;20033;-89
2021/07/11 04:43:14;;;;;;;3.47;2.70;;;;;;;16.02;48.30;101650.13;5038672;28;20481;-88
2021/07/11 04:45:40;;;;;;;4.45;2.95;;;;;;;16.03;48.45;101653.59;5058122;28;20033;-88
2021/07/11 04:48:06;;;;;;;4.70;3.10;;;;;;;16.27;48.00;101649.72;5066103;28;20476;-87
2021/07/11 04:50:31;;;;;;;5.05;2.55;;;;;;;16.32;48.11;101649.47;5061681;28;20077;-90
2021/07/11 04:52:57;;;;;;;3.20;1.70;;;;;;;16.55;47.34;101656.16;5066921;28;20064;-89
2021/07/11 04:55:23;;;;;;;3.53;2.40;;;;;;;16.72;46.78;101655.28;5055773;28;20036;-90
2021/07/11 04:57:50;;;;;;;3.65;2.03;;;;;;;16.88;46.32;101653.53;5060275;28;20040;-90
2021/07/11 05:00:20;;;;;;;4.07;2.60;;;;;;;16.91;46.41;101658.66;5034447;28;20064;-90
2021/07/11 05:02:47;;;;;;;3.28;2.22;;;;;;;16.81;46.80;101660.94;5037283;28;20504;-90
2021/07/11 05:05:13;;;;;;;5.05;3.28;;;;;;;17.18;46.37;101664.22;5071565;28;20033;-87
2021/07/11 05:07:39;;;;;;;4.30;2.10;;;;;;;18.21;44.57;101668.91;5054070;28;20041;-87
2021/07/11 05:10:07;;;;;;;2.72;2.22;;;;;;;19.81;40.08;101657.97;5043256;28;20037;-87
2021/07/11 05:12:33;;;;;;;2.72;2.28;;;;;;;20.95;38.42;101658.97;5070361;28;20080;-89
2021/07/11 05:15:01;;;;;;;5.72;2.55;;;;;;;22.05;36.30;101652.59;5055623;28;20037;-87
2021/07/11 05:17:27;;;;;;;3.17;2.03;;;;;;;22.89;34.42;101660.31;5050873;28;20583;-89
2021/07/11 05:19:53;;;;;;;2.65;1.55;;;;;;;23.84;32.31;101655.16;5051422;28;20300;-89
2021/07/11 05:22:19;;;;;;;2.63;1.88;;;;;;;24.49;30.88;101660.34;5035345;28;20029;-89
2021/07/11 05:24:45;;;;;;;3.28;1.65;;;;;;;24.61;31.97;101657.44;5054494;28;20029;-88
2021/07/11 05:27:10;;;;;;;2.70;1.77;;;;;;;24.90;30.13;101664.69;5034644;28;20025;-89
2021/07/11 05:29:36;;;;;;;2.00;0.93;;;;;;;24.97;30.45;101670.38;5054617;28;20092;-90
2021/07/11 05:32:03;;;;;;;3.92;1.88;;;;;;;25.16;30.53;101675.78;5049704;28;20568;-89
2021/07/11 05:34:29;;;;;;;2.30;1.52;;;;;;;25.53;29.94;101676.94;5056696;28;20212;-90
2021/07/11 05:36:55;;;;;;;3.05;1.40;;;;;;;26.03;28.55;101674.09;5066922;28;20126;-86
2021/07/11 05:39:22;;;;;;;3.47;1.05;;;;;;;25.96;29.13;101678.34;5049549;28;20106;-89
2021/07/11 05:41:48;;;;;;;1.83;0.90;;;;;;;25.77;28.77;101674.69;5048456;28;20049;-90
2021/07/11 05:44:13;;;;;;;3.15;0.85;;;;;;;26.16;29.89;101682.69;5054203;28;20047;-86
2021/07/11 05:46:39;;;;;;;1.40;1.10;;;;;;;26.79;27.63;101670.47;5035566;28;20119;-89
2021/07/11 05:49:05;;;;;;;1.98;1.27;;;;;;;26.32;28.49;101679.41;5038776;28;20049;-90
2021/07/11 05:51:32;;;;;;;3.58;0.90;;;;;;;26.15;28.62;101683.66;5034658;28;20112;-87
2021/07/11 05:53:59;;;;;;;1.88;1.40;;;;;;;25.80;29.34;101679.78;5036944;28;20040;-87
2021/07/11 05:56:24;;;;;;;2.20;1.65;;;;;;;25.64;29.02;101680.34;5053498;28;20056;-90
2021/07/11 05:58:50;;;;;;;4.25;1.08;;;;;;;26.22;29.71;101684.78;5054213;28;20033;-88
2021/07/11 06:01:16;;;;;;;2.05;0.90;;;;;;;27.17;27.89;101684.69;5052917;28;20127;-89
2021/07/11 06:03:42;;;;;;;3.03;1.08;;;;;;;27.82;26.48;101679.06;5041793;28;20068;-87
2021/07/11 06:06:07;;;;;;;1.83;0.95;;;;;;;28.07;26.50;101682.78;5067382;28;20029;-89
2021/07/11 06:08:33;;;;;;;1.40;1.00;;;;;;;27.63;25.85;101675.59;5048865;28;20516;-89
2021/07/11 06:11:01;;;;;;;2.13;1.10;;;;;;;27.35;26.71;101688.22;5051567;28;20046;-89
2021/07/11 06:13:29;;;;;;;2.33;1.55;;;;;;;27.00;27.32;101687.13;5055936;28;20037;-89
2021/07/11 06:15:55;;;;;;;2.95;0.80;;;;;;;27.32;26.22;101688.53;5054665;28;20117;-88
2021/07/11 06:18:20;;;;;;;2.30;0.88;;;;;;;27.77;26.14;101686.78;5049808;28;20033;-89
2021/07/11 06:20:46;;;;;;;2.75;1.10;;;;;;;27.73;26.00;101687.06;5037768;28;20030;-88
2021/07/11 06:23:12;;;;;;;3.05;1.15;;;;;;;28.18;25.49;101673.63;5037135;28;20044;-88
2021/07/11 06:25:38;;;;;;;1.38;0.98;;;;;;;27.03;25.84;101684.16;5059032;28;20044;-89
2021/07/11 06:28:04;;;;;;;1.33;1.00;;;;;;;27.37;26.18;101686.22;5048265;28;20033;-90
2021/07/11 06:30:32;;;;;;;4.40;1.08;;;;;;;26.62;26.53;101686.34;5053270;28;20032;-87
2021/07/11 06:32:57;;;;;;;1.70;1.00;;;;;;;26.38;27.19;101688.66;5056957;28;20037;-88
2021/07/11 06:35:24;;;;;;;2.10;1.00;;;;;;;26.58;27.29;101679.63;5058919;28;20101;-87
2021/07/11 06:37:53;;;;;;;1.92;1.45;;;;;;;27.15;26.48;101675.94;5046671;28;20029;-88
2021/07/11 06:40:22;;;;;;;2.85;0.90;;;;;;;27.85;26.77;101676.06;5038458;28;20051;-87
2021/07/11 06:42:47;;;;;;;3.97;1.88;;;;;;;27.80;25.73;101681.91;5051354;28;20037;-88
2021/07/11 06:45:15;;;;;;;2.00;1.30;;;;;;;28.21;25.00;101686.75;5061749;28;20048;-87
2021/07/11 06:47:41;;;;;;;2.95;1.25;;;;;;;28.91;24.54;101684.75;5051479;28;20064;-91
2021/07/11 06:50:10;;;;;;;2.05;1.13;;;;;;;29.82;23.48;101674.09;5050835;28;20063;-90
2021/07/11 06:52:37;;;;;;;1.45;1.08;;;;;;;30.34;22.39;101674.53;5059975;28;20041;-88
2021/07/11 06:55:07;;;;;;;2.97;1.98;;;;;;;29.78;22.58;101679.84;5042916;28;20041;-89
2021/07/11 06:57:33;;;;;;;4.60;2.22;;;;;;;28.62;24.29;101676.22;5054209;28;20032;-89
2021/07/11 07:00:01;;;;;;;4.43;2.17;;;;;;;27.92;25.40;101675.31;5052171;28;20045;-89
2021/07/11 07:02:33;;;;;;;5.53;2.88;;;;;;;27.50;24.45;101672.41;5069072;28;20037;-89
2021/07/11 07:04:59;;;;;;;3.42;2.42;;;;;;;27.17;25.43;101666.72;5054563;28;20115;-88
2021/07/11 07:07:25;;;;;;;3.58;2.22;;;;;;;27.02;25.85;101674.41;5043609;28;20040;-88
2021/07/11 07:09:51;;;;;;;4.45;2.85;;;;;;;27.62;24.47;101665.00;5055781;28;20455;-89
2021/07/11 07:12:16;;;;;;;6.38;2.85;;;;;;;28.30;24.13;101666.97;5035107;28;20103;-89
2021/07/11 07:14:44;;;;;;;3.97;2.00;;;;;;;28.54;23.40;101656.31;5041210;28;20021;-89
2021/07/11 07:17:10;;;;;;;3.92;2.05;;;;;;;28.55;24.26;101660.72;5052845;28;20025;-88
2021/07/11 07:19:37;;;;;;;3.08;1.98;;;;;;;28.77;23.40;101657.63;5046971;28;20081;-90
2021/07/11 07:22:03;;;;;;;2.47;2.17;;;;;;;29.62;22.71;101657.44;5058059;28;20061;-89
2021/07/11 07:24:30;;;;;;;3.70;1.83;;;;;;;30.11;21.97;101663.66;5064318;28;20045;-90
2021/07/11 07:26:55;;;;;;;3.88;1.65;;;;;;;29.31;22.55;101660.81;5048832;28;20041;-89
2021/07/11 07:29:21;;;;;;;2.50;2.30;;;;;;;29.63;22.80;101664.53;5048850;28;20079;-92
2021/07/11 07:31:47;;;;;;;2.35;2.08;;;;;;;29.79;22.10;101659.13;5063965;28;20041;-91
2021/07/11 07:34:14;;;;;;;2.92;1.80;;;;;;;29.76;22.69;101672.94;5063037;28;20029;-90
2021/07/11 07:36:41;;;;;;;3.80;2.70;;;;;;;30.32;22.18;101670.31;5068629;28;20057;-90
2021/07/11 07:39:09;;;;;;;2.50;1.67;;;;;;;30.39;21.71;101665.91;5074186;28;20024;-91
2021/07/11 07:41:37;;;;;;;4.47;2.25;;;;;;;30.72;21.53;101666.63;5053716;28;20041;-91
2021/07/11 07:44:04;;;;;;;3.10;2.38;;;;;;;30.59;21.22;101675.28;5055374;28;20052;-92
2021/07/11 07:46:30;;;;;;;3.90;2.65;;;;;;;29.99;22.48;101663.13;5044511;28;20558;-90
2021/07/11 07:48:55;;;;;;;3.78;2.40;;;;;;;30.17;22.36;101667.50;5067853;28;20379;-88
2021/07/11 07:51:21;;;;;;;5.53;3.28;;;;;;;30.24;21.73;101660.41;5051243;28;20017;-90
2021/07/11 07:53:49;;;;;;;3.70;2.88;;;;;;;29.49;23.04;101656.09;5079943;28;20068;-92
2021/07/11 07:56:16;;;;;;;2.85;2.38;;;;;;;28.77;23.50;101658.47;5065559;28;20025;-90
2021/07/11 07:58:45;;;;;;;3.35;2.47;;;;;;;28.57;24.02;101657.88;5065532;28;20033;-91
2021/07/11 08:01:13;;;;;;;2.55;1.90;;;;;;;29.50;22.68;101657.75;5063033;28;20048;-90
2021/07/11 08:03:39;;;;;;;2.55;2.22;;;;;;;29.85;22.21;101653.06;5063864;28;20100;-88
2021/07/11 08:06:06;;;;;;;3.35;2.47;;;;;;;30.68;22.27;101659.91;5062244;28;20037;-89
2021/07/11 08:08:32;;;;;;;2.08;1.73;;;;;;;31.00;21.96;101658.91;5074501;28;20033;-91
2021/07/11 08:10:59;;;;;;;4.68;2.10;;;;;;;31.33;21.52;101653.28;5042948;28;20033;-90
2021/07/11 08:13:26;;;;;;;2.83;2.58;;;;;;;32.14;19.76;101655.41;5057616;28;20067;-89
2021/07/11 08:15:57;;;;;;;3.28;1.67;;;;;;;32.60;19.71;101652.53;5043489;28;20041;-89
2021/07/11 08:18:23;;;;;;;9.35;2.35;;;;;;;32.05;20.32;101657.38;5041459;28;20065;-89
2021/07/11 08:20:49;;;;;;;3.35;1.98;;;;;;;31.67;20.59;101656.56;5057337;28;20114;-90
2021/07/11 08:23:14;;;;;;;2.92;2.38;;;;;;;31.31;21.10;101655.31;5062841;28;20029;-90
2021/07/11 08:25:40;;;;;;;3.60;2.10;;;;;;;31.62;21.95;101657.94;5058817;28;20116;-89
2021/07/11 08:28:07;;;;;;;3.85;2.47;;;;;;;31.25;21.98;101660.59;5041867;28;20036;-87
2021/07/11 08:30:32;;;;;;;3.85;3.55;;;;;;;30.61;22.13;101658.09;5063429;28;20080;-93
2021/07/11 08:32:58;;;;;;;4.82;2.35;;;;;;;29.41;23.62;101657.94;5047564;28;20041;-89
2021/07/11 08:35:23;;;;;;;4.28;2.83;;;;;;;29.86;23.70;101664.66;5037782;28;20056;-88
2021/07/11 08:37:49;;;;;;;6.05;3.25;;;;;;;29.87;22.55;101666.38;5056605;28;20123;-89
2021/07/11 08:40:15;;;;;;;3.67;2.42;;;;;;;29.50;24.12;101671.22;5068590;28;20200;-89
2021/07/11 08:42:40;;;;;;;4.43;2.90;;;;;;;30.12;22.99;101668.03;5040639;28;20029;-89
2021/07/11 08:45:08;;;;;;;4.47;2.25;;;;;;;30.86;22.57;101677.69;5052342;28;20561;-88
2021/07/11 08:47:39;;;;;;;4.22;2.72;;;;;;;30.91;22.63;101672.59;5059568;28;20115;-89
2021/07/11 08:50:06;;;;;;;2.60;1.83;;;;;;;31.35;22.22;101666.59;5054495;28;20059;-90
2021/07/11 08:52:34;;;;;;;2.90;2.42;;;;;;;30.92;22.21;101679.69;5054752;28;20040;-90
2021/07/11 08:55:00;;;;;;;4.13;2.60;;;;;;;30.90;22.56;101671.78;5050625;28;20044;-89
2021/07/11 08:57:26;;;;;;;3.10;2.80;;;;;;;30.99;22.17;101672.56;5038094;28;20028;-90
2021/07/11 08:59:51;;;;;;;2.95;2.55;;;;;;;31.82;22.39;101666.38;5038522;28;20032;-88
2021/07/11 09:02:18;;;;;;;3.78;3.38;;;;;;;31.41;22.55;101682.09;5058983;28;20055;-89
2021/07/11 09:04:46;;;;;;;3.10;2.80;;;;;;;31.39;22.08;101676.03;5067392;28;20086;-89
2021/07/11 09:07:22;;;;;;;3.88;2.78;;;;;;;31.76;21.62;101675.22;5052292;28;20038;-89
2021/07/11 09:10:01;;;;;;;2.78;2.45;;;;;;;31.90;21.65;101678.97;5055352;28;20216;-87
2021/07/11 09:12:27;;;;;;;4.80;3.53;;;;;;;31.74;21.30;101681.81;5054043;28;20043;-90
2021/07/11 09:14:54;;;;;;;2.95;2.50;;;;;;;31.61;22.76;101683.28;5040516;28;20040;-90
2021/07/11 09:17:20;;;;;;;3.47;2.72;;;;;;;32.03;22.01;101681.91;5058305;28;20063;-88
2021/07/11 09:19:48;;;;;;;3.90;3.33;;;;;;;30.86;22.12;101677.69;5057677;28;20033;-88
2021/07/11 09:22:19;;;;;;;3.38;2.90;;;;;;;30.66;23.32;101688.91;5043525;28;20030;-88
2021/07/11 09:25:00;;;;;;;3.67;3.38;;;;;;;30.12;24.06;101683.34;5036657;28;20028;-88
2021/07/11 09:27:31;;;;;;;9.45;5.47;;;;;;;31.16;22.77;101692.25;5059989;28;20100;-89
2021/07/11 09:30:06;;;;;;;5.50;3.50;;;;;;;30.71;23.45;101691.97;5044821;28;20040;-90
2021/07/11 09:32:34;;;;;;;4.93;2.83;;;;;;;29.87;23.99;101691.44;5056110;28;20102;-89
2021/07/11 09:35:17;;;;;;;4.18;3.45;;;;;;;29.74;24.45;101693.81;5032593;28;20043;-89
2021/07/11 09:37:48;;;;;;;5.93;4.00;;;;;;;29.24;24.92;101702.84;5060769;28;20104;-85
2021/07/11 09:40:16;;;;;;;;;;;;;;;28.93;26.81;101698.03;5052944;28;20033;-89
2021/07/11 09:42:44;;;;;;;6.47;4.07;;;;;;;28.06;26.16;101697.22;5043249;28;19920;-89
2021/07/11 09:45:22;;;;;;;4.85;4.25;;;;;;;27.59;27.84;101694.81;5052502;28;20037;-88
2021/07/11 09:47:50;;;;;;;3.65;3.15;;;;;;;27.43;27.71;101690.97;5054758;28;20304;-89
2021/07/11 09:50:23;;;;;;;6.28;3.67;;;;;;;27.21;28.18;101691.44;5052769;28;20111;-89
2021/07/11 09:52:54;;;;;;;6.97;3.47;;;;;;;27.22;29.46;101693.94;5036095;28;20460;-88
2021/07/11 09:55:28;;;;;;;3.40;3.10;;;;;;;26.73;29.15;101698.72;5053524;28;20056;-88
2021/07/11 09:58:00;;;;;;;7.10;3.58;;;;;;;26.70;29.26;101699.03;5042651;28;20037;-89
2021/07/11 10:00:29;;;;;;;7.03;4.05;;;;;;;27.27;28.17;101697.03;5038803;28;20659;-90
2021/07/11 10:02:57;;;;;;;5.28;2.67;;;;;;;27.61;28.88;101699.03;5041104;28;20151;-89
2021/07/11 10:05:24;;;;;;;8.73;3.63;;;;;;;27.70;27.60;101697.28;5041311;28;20032;-88
2021/07/11 10:07:51;;;;;;;5.07;4.40;;;;;;;27.71;28.04;101688.22;5049511;28;20041;-88
2021/07/11 10:10:19;;;;;;;4.75;3.78;;;;;;;27.79;27.61;101690.16;5051104;28;20041;-87
2021/07/11 10:12:45;;;;;;;4.90;3.58;;;;;;;27.04;29.16;101693.06;5050412;28;20029;-88
2021/07/11 10:15:17;;;;;;;3.55;2.53;;;;;;;27.23;29.87;101687.59;5055277;28;20033;-88
2021/07/11 10:17:57;;;;;;;5.65;3.35;;;;;;;27.59;29.25;101694.81;5052339;28;20100;-88
2021/07/11 10:20:39;;;;;;;3.10;2.75;;;;;;;27.41;27.75;101690.28;5053509;28;20092;-90
2021/07/11 10:23:07;;;;;;;4.55;2.60;;;;;;;27.64;28.78;101700.59;5034081;28;20057;-88
2021/07/11 10:25:34;;;;;;;6.57;3.97;;;;;;;27.05;28.98;101689.38;5037701;28;20033;-87
2021/07/11 10:28:17;;;;;;;6.15;3.00;;;;;;;26.57;30.70;101693.97;5048344;28;20106;-89
2021/07/11 10:30:46;;;;;;;7.68;3.28;;;;;;;27.24;29.05;101696.47;5055581;28;20086;-89
2021/07/11 10:33:15;;;;;;;4.30;3.92;;;;;;;27.27;28.42;101696.16;5056792;28;20037;-87
2021/07/11 10:35:54;;;;;;;5.78;3.65;;;;;;;27.18;28.26;101699.75;5055688;28;20121;-89
2021/07/11 10:38:43;;;;;;;3.63;2.95;;;;;;;27.67;28.28;101702.94;5040515;28;20040;-88
2021/07/11 10:41:14;;;;;;;7.47;4.18;;;;;;;27.48;28.48;101695.88;5031813;28;20064;-89
2021/07/11 10:43:40;;;;;;;4.60;4.20;;;;;;;26.96;29.42;101699.19;5036163;28;20041;-89
2021/07/11 10:46:09;;;;;;;7.10;3.78;;;;;;;27.11;29.22;101697.69;5041099;28;20040;-90
2021/07/11 10:48:35;;;;;;;4.63;4.22;;;;;;;27.48;28.15;101699.41;5049995;28;20045;-90
2021/07/11 10:51:02;;;;;;;6.03;4.05;;;;;;;26.90;28.76;101695.25;5057520;28;20320;-91
2021/07/11 10:53:36;;;;;;;5.18;3.50;;;;;;;27.43;27.72;101692.78;5040310;28;20037;-88
2021/07/11 10:56:04;;;;;;;11.57;4.25;;;;;;;27.30;28.29;101695.88;5040759;28;20075;-87
2021/07/11 10:58:39;;;;;;;5.25;3.88;;;;;;;27.35;27.85;101698.94;5051032;28;20041;-89
2021/07/11 11:01:15;;;;;;;8.18;3.95;;;;;;;27.51;29.55;101692.88;5048186;28;20040;-90
2021/07/11 11:03:47;;;;;;;4.68;3.72;;;;;;;27.66;29.05;101701.28;5041841;28;20033;-89
2021/07/11 11:06:14;;;;;;;5.95;4.00;;;;;;;28.21;26.93;101693.00;5036593;28;20145;-88
2021/07/11 11:08:46;;;;;;;5.13;4.47;;;;;;;27.99;27.37;101701.50;5052749;28;20397;-87
2021/07/11 11:11:11;;;;;;;7.93;6.03;;;;;;;28.47;28.81;101695.63;5036447;28;20085;-89
2021/07/11 11:13:37;;;;;;;6.80;4.68;;;;;;;28.38;26.80;101695.75;5056651;28;20117;-89
2021/07/11 11:16:18;;;;;;;3.55;3.20;;;;;;;28.14;28.06;101699.97;5034973;28;20041;-89
2021/07/11 11:18:50;;;;;;;8.18;5.60;;;;;;;27.93;27.93;101703.00;5042686;28;20048;-89
2021/07/11 11:21:20;;;;;;;9.40;4.43;;;;;;;27.37;29.09;101696.94;5045599;28;20033;-87
2021/07/11 11:23:56;;;;;;;6.30;5.28;;;;;;;26.62;30.71;101706.97;5060759;28;20040;-88
2021/07/11 11:26:24;;;;;;;6.18;4.65;;;;;;;28.06;28.65;101705.28;5039294;28;20032;-90
2021/07/11 11:28:55;;;;;;;6.70;5.15;;;;;;;27.88;28.80;101703.47;5040932;28;20075;-88
2021/07/11 11:31:26;;;;;;;6.32;3.90;;;;;;;28.37;28.11;101704.81;5056985;28;20036;-89
2021/07/11 11:34:06;;;;;;;6.65;5.35;;;;;;;27.93;29.12;101708.38;5041496;28;20037;-89